Time;durP1;ratioP1;P1;durP2;ratioP2;P2;SDS_P1;SDS_P2;PMS_P1;PMS_P2;Temp;Humidity;BMP_temperature;BMP_pressure;BME280_temperature;BME280_humidity;BME280_pressure;Samples;Min_cycle;Max_cycle;Signal;HPM_P1;HPM_P2
2022/04/10 00:01:30;;;;;;;144.35;57.85;;;;;;;;;;5014020;28;20191;-61
2022/04/10 00:03:56;;;;;;;135.95;58.33;;;;;;;;;;5013755;28;20174;-61
2022/04/10 00:06:23;;;;;;;139.40;55.83;;;;;;;;;;5013628;28;20195;-62
2022/04/10 00:08:49;;;;;;;138.15;57.90;;;;;;;;;;5013541;28;20820;-62
2022/04/10 00:11:14;;;;;;;142.30;59.50;;;;;;;;;;5013287;28;20183;-62
2022/04/10 00:13:41;;;;;;;139.20;56.70;;;;;;;;;;5013507;28;20413;-62
2022/04/10 00:16:08;;;;;;;146.25;58.53;;;;;;;;;;5013115;28;20436;-62
2022/04/10 00:18:34;;;;;;;143.15;57.03;;;;;;;;;;5013517;28;20169;-62
2022/04/10 00:21:01;;;;;;;147.85;58.70;;;;;;;;;;5013339;28;20188;-62
2022/04/10 00:23:27;;;;;;;145.57;57.08;;;;;;;;;;5013414;28;20257;-62
2022/04/10 00:25:53;;;;;;;147.30;60.40;;;;;;;;;;5012458;28;20342;-62
2022/04/10 00:28:18;;;;;;;149.00;59.33;;;;;;;;;;5011264;28;20178;-62
2022/04/10 00:30:45;;;;;;;152.63;60.30;;;;;;;;;;5011151;28;20407;-62
2022/04/10 00:33:11;;;;;;;155.68;61.30;;;;;;;;;;5012479;28;20402;-62
2022/04/10 00:35:36;;;;;;;128.57;55.00;;;;;;;;;;5013199;28;20478;-62
2022/04/10 00:38:03;;;;;;;128.77;54.80;;;;;;;;;;5013210;28;20763;-62
2022/04/10 00:40:29;;;;;;;141.18;57.45;;;;;;;;;;5012732;28;20413;-62
2022/04/10 00:42:55;;;;;;;139.70;58.75;;;;;;;;;;5012738;28;20255;-61
2022/04/10 00:45:21;;;;;;;136.80;56.83;;;;;;;;;;5012783;28;20273;-62
2022/04/10 00:47:47;;;;;;;132.90;56.35;;;;;;;;;;5013661;28;20215;-63
2022/04/10 00:50:15;;;;;;;135.77;58.30;;;;;;;;;;5012332;28;20546;-62
2022/04/10 00:52:42;;;;;;;133.55;56.85;;;;;;;;;;5010969;28;20346;-62
2022/04/10 00:55:08;;;;;;;136.27;58.10;;;;;;;;;;5010900;28;20182;-62
2022/04/10 00:57:34;;;;;;;135.60;57.10;;;;;;;;;;5010983;28;20200;-62
2022/04/10 01:00:00;;;;;;;135.80;58.03;;;;;;;;;;5011318;28;20254;-60
2022/04/10 01:02:26;;;;;;;133.50;58.10;;;;;;;;;;5011243;28;20854;-62
2022/04/10 01:04:52;;;;;;;140.90;57.43;;;;;;;;;;5011525;28;20842;-62
2022/04/10 01:07:19;;;;;;;140.83;57.80;;;;;;;;;;5012177;28;21163;-63
2022/04/10 01:09:46;;;;;;;141.43;57.97;;;;;;;;;;5012213;28;20426;-62
2022/04/10 01:12:12;;;;;;;141.73;58.67;;;;;;;;;;4991742;28;20179;-62
2022/04/10 01:14:38;;;;;;;151.90;58.50;;;;;;;;;;4992709;28;20188;-62
2022/04/10 01:17:07;;;;;;;150.40;58.67;;;;;;;;;;4992777;28;20437;-62
2022/04/10 01:19:33;;;;;;;152.02;59.22;;;;;;;;;;4993519;28;20171;-62
2022/04/10 01:22:00;;;;;;;149.10;58.03;;;;;;;;;;4992513;28;20184;-62
2022/04/10 01:24:26;;;;;;;144.80;57.22;;;;;;;;;;4992664;28;20208;-62
2022/04/10 01:26:52;;;;;;;143.00;57.33;;;;;;;;;;4992008;28;20195;-61
2022/04/10 01:29:18;;;;;;;143.20;57.80;;;;;;;;;;5006353;28;20190;-61
2022/04/10 01:31:45;;;;;;;146.10;57.22;;;;;;;;;;5011908;28;20417;-62
2022/04/10 01:34:15;;;;;;;148.73;57.15;;;;;;;;;;4995272;28;20737;-62
2022/04/10 01:36:41;;;;;;;144.15;56.85;;;;;;;;;;5012095;28;20197;-62
2022/04/10 01:39:09;;;;;;;150.32;60.08;;;;;;;;;;5012231;28;20178;-62
2022/04/10 01:41:35;;;;;;;151.82;59.53;;;;;;;;;;5011865;28;20657;-62
2022/04/10 01:44:02;;;;;;;150.98;58.83;;;;;;;;;;5011850;28;20179;-62
2022/04/10 01:46:30;;;;;;;157.30;58.63;;;;;;;;;;5011852;28;20612;-61
2022/04/10 01:48:56;;;;;;;146.63;56.97;;;;;;;;;;5011963;28;20253;-59
2022/04/10 01:51:23;;;;;;;146.23;57.35;;;;;;;;;;5011683;28;20181;-60
2022/04/10 01:53:50;;;;;;;156.75;59.17;;;;;;;;;;5011890;28;20182;-61
2022/04/10 01:56:16;;;;;;;158.13;59.00;;;;;;;;;;5011745;28;20218;-60
2022/04/10 01:58:43;;;;;;;153.60;58.00;;;;;;;;;;5012358;28;20556;-62
2022/04/10 02:01:10;;;;;;;157.15;58.35;;;;;;;;;;5011635;28;20207;-61
2022/04/10 02:03:36;;;;;;;156.65;57.38;;;;;;;;;;5011870;28;20261;-62
2022/04/10 02:06:03;;;;;;;156.32;58.38;;;;;;;;;;5011686;28;20265;-62
2022/04/10 02:08:30;;;;;;;157.30;59.72;;;;;;;;;;5011782;28;20531;-62
2022/04/10 02:10:56;;;;;;;169.57;60.42;;;;;;;;;;5011668;28;20648;-62
2022/04/10 02:13:22;;;;;;;161.85;59.35;;;;;;;;;;5011694;28;20211;-63
2022/04/10 02:15:48;;;;;;;164.32;59.85;;;;;;;;;;5011648;28;20248;-62
2022/04/10 02:18:14;;;;;;;163.30;58.13;;;;;;;;;;5011732;28;20257;-62
2022/04/10 02:20:40;;;;;;;155.10;57.47;;;;;;;;;;5011401;28;20184;-62
2022/04/10 02:23:06;;;;;;;152.73;58.90;;;;;;;;;;5011612;28;20492;-62
2022/04/10 02:25:33;;;;;;;154.65;58.35;;;;;;;;;;5011492;28;20198;-62
2022/04/10 02:27:59;;;;;;;151.75;57.65;;;;;;;;;;5010331;28;20571;-62
2022/04/10 02:30:25;;;;;;;166.30;63.73;;;;;;;;;;5011336;28;20179;-62
2022/04/10 02:32:51;;;;;;;168.77;59.95;;;;;;;;;;5011572;28;20417;-63
2022/04/10 02:35:17;;;;;;;173.27;61.72;;;;;;;;;;5011509;28;20217;-61
2022/04/10 02:37:46;;;;;;;171.68;59.88;;;;;;;;;;5012477;28;20203;-62
2022/04/10 02:40:14;;;;;;;162.35;63.22;;;;;;;;;;5014934;28;20214;-62
2022/04/10 02:42:40;;;;;;;178.57;60.28;;;;;;;;;;5015330;28;20171;-62
2022/04/10 02:45:06;;;;;;;179.32;64.82;;;;;;;;;;5015267;28;20234;-61
2022/04/10 02:47:33;;;;;;;160.88;58.00;;;;;;;;;;5015034;28;20211;-62
2022/04/10 02:49:59;;;;;;;174.98;62.47;;;;;;;;;;5015018;28;20177;-62
2022/04/10 02:52:25;;;;;;;184.15;61.28;;;;;;;;;;5014860;28;20177;-62
2022/04/10 02:54:51;;;;;;;174.80;59.05;;;;;;;;;;5015076;28;20651;-62
2022/04/10 02:57:17;;;;;;;164.90;60.45;;;;;;;;;;5015016;28;20198;-62
2022/04/10 02:59:43;;;;;;;169.87;57.80;;;;;;;;;;5015033;28;20585;-62
2022/04/10 03:02:09;;;;;;;173.50;57.67;;;;;;;;;;5014763;28;20616;-62
2022/04/10 03:04:34;;;;;;;158.60;56.80;;;;;;;;;;5014892;28;20811;-62
2022/04/10 03:07:00;;;;;;;154.97;57.27;;;;;;;;;;5014688;28;20924;-62
2022/04/10 03:09:27;;;;;;;154.70;58.10;;;;;;;;;;5014754;28;20926;-61
2022/04/10 03:11:53;;;;;;;143.05;57.25;;;;;;;;;;5014785;28;20403;-60
2022/04/10 03:14:19;;;;;;;76.70;46.07;;;;;;;;;;5014800;28;20548;-62
2022/04/10 03:16:45;;;;;;;68.70;45.13;;;;;;;;;;5014606;28;20435;-62
2022/04/10 03:19:11;;;;;;;76.13;45.38;;;;;;;;;;5014587;28;20179;-62
2022/04/10 03:21:37;;;;;;;81.73;46.10;;;;;;;;;;5014270;28;20281;-62
2022/04/10 03:24:03;;;;;;;73.80;46.22;;;;;;;;;;5014471;28;20411;-62
2022/04/10 03:26:29;;;;;;;67.07;45.08;;;;;;;;;;5014450;28;20206;-62
2022/04/10 03:28:55;;;;;;;86.63;47.05;;;;;;;;;;5014765;28;20173;-60
2022/04/10 03:31:22;;;;;;;91.20;47.53;;;;;;;;;;5014209;28;20653;-62
2022/04/10 03:33:48;;;;;;;92.47;49.40;;;;;;;;;;5014409;28;20605;-63
2022/04/10 03:36:15;;;;;;;91.32;47.20;;;;;;;;;;5014135;28;20237;-62
2022/04/10 03:38:41;;;;;;;92.70;49.70;;;;;;;;;;5014278;28;20181;-62
2022/04/10 03:41:07;;;;;;;90.05;48.40;;;;;;;;;;5013956;28;20257;-62
2022/04/10 03:43:33;;;;;;;91.65;46.25;;;;;;;;;;5014210;28;20303;-62
2022/04/10 03:45:59;;;;;;;85.27;45.53;;;;;;;;;;5013897;28;20291;-62
2022/04/10 03:48:26;;;;;;;95.63;49.35;;;;;;;;;;5014147;28;20420;-62
2022/04/10 03:50:52;;;;;;;93.75;49.00;;;;;;;;;;5012851;28;20308;-60
2022/04/10 03:53:18;;;;;;;96.88;47.08;;;;;;;;;;5014003;28;20225;-62
2022/04/10 03:55:44;;;;;;;104.70;50.60;;;;;;;;;;5014137;28;20316;-61
2022/04/10 03:58:10;;;;;;;110.13;50.60;;;;;;;;;;5013934;28;20265;-61
2022/04/10 04:00:36;;;;;;;96.50;47.80;;;;;;;;;;5013623;28;20412;-62
2022/04/10 04:03:02;;;;;;;98.93;46.90;;;;;;;;;;5012530;28;20421;-61
2022/04/10 04:05:28;;;;;;;106.70;49.65;;;;;;;;;;5013541;28;20209;-62
2022/04/10 04:07:54;;;;;;;102.15;46.92;;;;;;;;;;5013769;28;20725;-61
2022/04/10 04:10:20;;;;;;;106.53;53.13;;;;;;;;;;5013597;28;20713;-62
2022/04/10 04:12:46;;;;;;;106.23;47.97;;;;;;;;;;5013674;28;20177;-62
2022/04/10 04:15:12;;;;;;;107.93;48.63;;;;;;;;;;5013630;28;20417;-61
2022/04/10 04:17:38;;;;;;;112.32;51.00;;;;;;;;;;5013471;28;20460;-62
2022/04/10 04:20:08;;;;;;;110.57;50.60;;;;;;;;;;5013323;28;20184;-61
2022/04/10 04:22:37;;;;;;;110.18;49.25;;;;;;;;;;5013104;28;20273;-62
2022/04/10 04:25:06;;;;;;;105.18;46.70;;;;;;;;;;5013392;28;20310;-62
2022/04/10 04:27:32;;;;;;;116.30;51.42;;;;;;;;;;5013193;28;20779;-62
2022/04/10 04:29:59;;;;;;;108.68;49.05;;;;;;;;;;5013334;28;20179;-62
2022/04/10 04:32:25;;;;;;;116.32;51.72;;;;;;;;;;5013081;28;20691;-61
2022/04/10 04:34:51;;;;;;;113.25;49.33;;;;;;;;;;5013208;28;20188;-61
2022/04/10 04:37:17;;;;;;;114.00;49.80;;;;;;;;;;5013196;28;20280;-61
2022/04/10 04:39:43;;;;;;;105.30;48.07;;;;;;;;;;5013175;28;20821;-62
2022/04/10 04:42:09;;;;;;;110.20;50.80;;;;;;;;;;5012864;28;20405;-63
2022/04/10 04:44:35;;;;;;;114.32;51.60;;;;;;;;;;5013156;28;20555;-61
2022/04/10 04:47:01;;;;;;;113.00;49.67;;;;;;;;;;5012888;28;20649;-62
2022/04/10 04:49:27;;;;;;;112.45;50.60;;;;;;;;;;5012829;28;20893;-62
2022/04/10 04:51:53;;;;;;;96.27;49.50;;;;;;;;;;5012681;28;20175;-62
2022/04/10 04:54:19;;;;;;;102.20;49.78;;;;;;;;;;5013293;28;20408;-61
2022/04/10 04:56:45;;;;;;;99.43;48.83;;;;;;;;;;5013434;28;20265;-61
2022/04/10 04:59:14;;;;;;;85.93;46.90;;;;;;;;;;5012855;28;20403;-61
2022/04/10 05:01:43;;;;;;;84.80;47.28;;;;;;;;;;5011590;28;20432;-61
2022/04/10 05:04:10;;;;;;;85.75;48.05;;;;;;;;;;5012605;28;20170;-61
2022/04/10 05:06:36;;;;;;;97.72;49.03;;;;;;;;;;5012599;28;20192;-61
2022/04/10 05:09:02;;;;;;;97.20;48.40;;;;;;;;;;5012675;28;20529;-61
2022/04/10 05:11:28;;;;;;;102.05;50.20;;;;;;;;;;5012289;28;20411;-61
2022/04/10 05:13:54;;;;;;;101.30;49.03;;;;;;;;;;5012566;28;20174;-61
2022/04/10 05:16:21;;;;;;;107.75;51.85;;;;;;;;;;5010804;28;20452;-62
2022/04/10 05:18:47;;;;;;;107.60;51.25;;;;;;;;;;5012260;28;20181;-61
2022/04/10 05:21:13;;;;;;;107.17;49.80;;;;;;;;;;5012076;28;20188;-60
2022/04/10 05:23:39;;;;;;;108.23;49.80;;;;;;;;;;5012334;28;20413;-59
2022/04/10 05:26:05;;;;;;;109.40;51.77;;;;;;;;;;5012149;28;20476;-61
2022/04/10 05:28:32;;;;;;;107.83;50.40;;;;;;;;;;5012328;28;20416;-61
2022/04/10 05:30:58;;;;;;;110.55;51.70;;;;;;;;;;5012070;28;20903;-61
2022/04/10 05:33:24;;;;;;;88.15;48.47;;;;;;;;;;5012269;28;20178;-62
2022/04/10 05:35:53;;;;;;;92.83;50.03;;;;;;;;;;5012165;28;20177;-62
2022/04/10 05:38:19;;;;;;;95.60;49.40;;;;;;;;;;5012133;28;20422;-62
2022/04/10 05:40:52;;;;;;;106.27;49.80;;;;;;;;;;5011829;28;20251;-62
2022/04/10 05:43:18;;;;;;;110.65;50.45;;;;;;;;;;5012327;28;20791;-62
2022/04/10 05:45:44;;;;;;;114.85;52.40;;;;;;;;;;5012020;28;20292;-62
2022/04/10 05:48:10;;;;;;;109.40;50.58;;;;;;;;;;5012070;28;20180;-62
2022/04/10 05:50:36;;;;;;;109.60;52.40;;;;;;;;;;5011842;28;20172;-62
2022/04/10 05:53:03;;;;;;;107.17;52.47;;;;;;;;;;5012116;28;20403;-62
2022/04/10 05:55:29;;;;;;;110.00;53.00;;;;;;;;;;5011954;28;20967;-62
2022/04/10 05:57:55;;;;;;;103.87;51.90;;;;;;;;;;5011923;28;20196;-62
2022/04/10 06:00:23;;;;;;;106.50;54.38;;;;;;;;;;5011666;28;20405;-62
2022/04/10 06:02:49;;;;;;;105.82;51.13;;;;;;;;;;5011805;28;20522;-62
2022/04/10 06:05:15;;;;;;;99.50;50.03;;;;;;;;;;5011685;28;20295;-63
2022/04/10 06:07:41;;;;;;;109.40;52.30;;;;;;;;;;5011617;28;20445;-62
2022/04/10 06:10:08;;;;;;;72.82;47.20;;;;;;;;;;5011610;28;20415;-62
2022/04/10 06:12:34;;;;;;;99.13;51.22;;;;;;;;;;5012663;28;20175;-63
2022/04/10 06:15:00;;;;;;;117.60;55.43;;;;;;;;;;5015874;28;20191;-62
2022/04/10 06:17:25;;;;;;;112.50;52.07;;;;;;;;;;5015721;28;20426;-62
2022/04/10 06:19:52;;;;;;;111.90;53.57;;;;;;;;;;5015678;28;20894;-62
2022/04/10 06:22:18;;;;;;;108.95;54.47;;;;;;;;;;5015479;28;20415;-62
2022/04/10 06:24:44;;;;;;;112.43;53.67;;;;;;;;;;5015637;28;20704;-62
2022/04/10 06:27:10;;;;;;;110.20;55.00;;;;;;;;;;5015008;28;20549;-62
2022/04/10 06:29:36;;;;;;;97.07;53.30;;;;;;;;;;5013694;28;20407;-62
2022/04/10 06:32:02;;;;;;;62.80;50.17;;;;;;;;;;5013393;28;20421;-62
2022/04/10 06:34:28;;;;;;;93.20;54.10;;;;;;;;;;5013668;28;20407;-63
2022/04/10 06:36:54;;;;;;;88.10;53.27;;;;;;;;;;5013389;28;20493;-62
2022/04/10 06:39:20;;;;;;;52.60;47.27;;;;;;;;;;5013525;28;20491;-62
2022/04/10 06:41:45;;;;;;;100.25;54.92;;;;;;;;;;5013228;28;20887;-62
2022/04/10 06:44:11;;;;;;;57.43;48.47;;;;;;;;;;5014955;28;20173;-62
2022/04/10 06:46:37;;;;;;;52.57;46.97;;;;;;;;;;5016216;28;20562;-62
2022/04/10 06:49:03;;;;;;;48.77;44.07;;;;;;;;;;5015209;28;20457;-62
2022/04/10 06:51:29;;;;;;;47.83;43.17;;;;;;;;;;4995587;28;20515;-62
2022/04/10 06:53:55;;;;;;;48.97;44.37;;;;;;;;;;4995499;28;20279;-62
2022/04/10 06:56:21;;;;;;;52.00;46.80;;;;;;;;;;4995171;28;20440;-62
2022/04/10 06:58:47;;;;;;;55.70;49.90;;;;;;;;;;4994869;28;20579;-62
2022/04/10 07:01:13;;;;;;;74.63;51.97;;;;;;;;;;4995125;28;20413;-62
2022/04/10 07:03:39;;;;;;;60.83;52.03;;;;;;;;;;4994990;28;20412;-62
2022/04/10 07:06:05;;;;;;;65.20;54.72;;;;;;;;;;4995117;28;20508;-62
2022/04/10 07:08:32;;;;;;;114.47;61.27;;;;;;;;;;4994935;28;20212;-62
2022/04/10 07:10:58;;;;;;;87.00;57.00;;;;;;;;;;4995325;28;20408;-62
2022/04/10 07:13:24;;;;;;;58.47;52.67;;;;;;;;;;4995103;28;20526;-62
2022/04/10 07:15:52;;;;;;;61.22;54.83;;;;;;;;;;4994559;28;20767;-61
2022/04/10 07:18:18;;;;;;;97.15;61.90;;;;;;;;;;5008849;28;20197;-62
2022/04/10 07:20:44;;;;;;;104.18;62.78;;;;;;;;;;5014166;28;20560;-62
2022/04/10 07:25:55;;;;;;;113.93;66.47;;;;;;;;;;5013624;28;20510;-62
2022/04/10 07:28:21;;;;;;;116.07;65.87;;;;;;;;;;5014238;28;20789;-62
2022/04/10 07:30:47;;;;;;;127.50;68.68;;;;;;;;;;5013725;28;20784;-60
2022/04/10 07:33:14;;;;;;;137.05;72.05;;;;;;;;;;5014436;28;20620;-61
2022/04/10 07:35:41;;;;;;;147.80;80.68;;;;;;;;;;5014610;28;20232;-62
2022/04/10 07:38:07;;;;;;;112.63;72.63;;;;;;;;;;5014235;28;20185;-62
2022/04/10 07:40:38;;;;;;;114.82;72.40;;;;;;;;;;5013698;28;20177;-62
2022/04/10 07:43:04;;;;;;;113.35;71.85;;;;;;;;;;5013986;28;20605;-61
2022/04/10 07:48:15;;;;;;;70.45;63.50;;;;;;;;;;5014665;28;20565;-60
2022/04/10 07:50:41;;;;;;;69.40;62.60;;;;;;;;;;5013907;28;20189;-60
2022/04/10 07:53:07;;;;;;;65.15;59.35;;;;;;;;;;5014187;28;20189;-60
2022/04/10 07:55:33;;;;;;;83.33;69.27;;;;;;;;;;5013927;28;20209;-59
2022/04/10 07:57:59;;;;;;;108.80;75.67;;;;;;;;;;5013763;28;20436;-60
2022/04/10 08:00:25;;;;;;;116.10;85.37;;;;;;;;;;5013257;28;20419;-60
2022/04/10 08:02:52;;;;;;;120.38;82.65;;;;;;;;;;5013669;28;20405;-62
2022/04/10 08:05:19;;;;;;;109.80;82.80;;;;;;;;;;5013721;28;20205;-61
2022/04/10 08:07:46;;;;;;;145.23;93.43;;;;;;;;;;5013760;28;20198;-62
2022/04/10 08:10:12;;;;;;;147.50;99.40;;;;;;;;;;5013458;28;20595;-62
2022/04/10 08:12:39;;;;;;;158.50;102.43;;;;;;;;;;5012330;28;20781;-63
2022/04/10 08:15:05;;;;;;;158.18;106.03;;;;;;;;;;5013607;28;20212;-62
2022/04/10 08:17:31;;;;;;;182.02;114.07;;;;;;;;;;5013487;28;20640;-62
2022/04/10 08:19:57;;;;;;;129.73;112.30;;;;;;;;;;5013377;28;20169;-63
2022/04/10 08:22:24;;;;;;;166.90;122.17;;;;;;;;;;5013229;28;20569;-63
2022/04/10 08:24:50;;;;;;;200.00;134.32;;;;;;;;;;5013351;28;20864;-62
2022/04/10 08:27:16;;;;;;;215.87;143.30;;;;;;;;;;5013187;28;20196;-63
2022/04/10 08:29:42;;;;;;;233.37;154.37;;;;;;;;;;5014400;28;20416;-63
2022/04/10 08:32:08;;;;;;;253.80;163.53;;;;;;;;;;5013035;28;20496;-63
2022/04/10 08:34:34;;;;;;;257.58;161.45;;;;;;;;;;5013289;28;20416;-63
2022/04/10 08:37:06;;;;;;;221.90;150.37;;;;;;;;;;5012922;28;20190;-63
2022/04/10 08:39:32;;;;;;;170.50;133.07;;;;;;;;;;5013189;28;20466;-62
2022/04/10 08:42:01;;;;;;;141.05;121.93;;;;;;;;;;5012772;28;20188;-63
2022/04/10 08:44:28;;;;;;;122.50;109.95;;;;;;;;;;5013162;28;20594;-62
2022/04/10 08:46:54;;;;;;;121.00;108.55;;;;;;;;;;5012840;28;20739;-63
2022/04/10 08:49:21;;;;;;;116.28;106.07;;;;;;;;;;5012962;28;20182;-63
2022/04/10 08:51:47;;;;;;;95.03;88.72;;;;;;;;;;5012643;28;20208;-63
2022/04/10 08:54:14;;;;;;;136.75;107.38;;;;;;;;;;5012808;28;20220;-63
2022/04/10 08:56:40;;;;;;;171.57;106.50;;;;;;;;;;5012773;28;20215;-62
2022/04/10 08:59:06;;;;;;;164.20;105.78;;;;;;;;;;5012711;28;20584;-62
2022/04/10 09:01:31;;;;;;;135.70;103.97;;;;;;;;;;5012691;28;20181;-63
2022/04/10 09:03:57;;;;;;;133.30;102.67;;;;;;;;;;5012691;28;20504;-62
2022/04/10 09:06:23;;;;;;;137.70;106.03;;;;;;;;;;5012452;28;20475;-62
2022/04/10 09:08:49;;;;;;;131.33;107.30;;;;;;;;;;5012558;28;20412;-63
2022/04/10 09:11:15;;;;;;;141.50;112.07;;;;;;;;;;5012250;28;20405;-62
2022/04/10 09:13:47;;;;;;;136.50;116.13;;;;;;;;;;5012569;28;20429;-63
2022/04/10 09:16:16;;;;;;;132.98;119.25;;;;;;;;;;5012521;28;20527;-63
2022/04/10 09:18:48;;;;;;;145.10;130.82;;;;;;;;;;5011706;28;20181;-63
2022/04/10 09:21:13;;;;;;;152.45;137.10;;;;;;;;;;5012164;28;20177;-63
2022/04/10 09:23:39;;;;;;;143.97;132.57;;;;;;;;;;5012185;28;20177;-63
2022/04/10 09:26:05;;;;;;;152.30;139.30;;;;;;;;;;5012109;28;20481;-63
2022/04/10 09:28:41;;;;;;;128.07;118.57;;;;;;;;;;5012302;28;20220;-63
2022/04/10 09:31:25;;;;;;;148.23;134.07;;;;;;;;;;5012038;28;20408;-62
2022/04/10 09:33:52;;;;;;;107.13;99.82;;;;;;;;;;5012300;28;20181;-62
2022/04/10 09:36:28;;;;;;;125.82;115.53;;;;;;;;;;5012147;28;20201;-63
2022/04/10 09:38:54;;;;;;;120.47;109.93;;;;;;;;;;5012244;28;20185;-63
2022/04/10 09:41:20;;;;;;;120.20;108.47;;;;;;;;;;5011957;28;20178;-63
2022/04/10 09:43:46;;;;;;;113.57;103.10;;;;;;;;;;5012224;28;20455;-63
2022/04/10 09:46:15;;;;;;;110.93;100.53;;;;;;;;;;5011889;28;20284;-62
2022/04/10 09:48:42;;;;;;;117.65;100.35;;;;;;;;;;5011429;28;20893;-63
2022/04/10 09:51:10;;;;;;;145.32;103.10;;;;;;;;;;5011760;28;20228;-62
2022/04/10 09:53:36;;;;;;;141.35;99.13;;;;;;;;;;5012072;28;20184;-63
2022/04/10 09:56:03;;;;;;;140.17;95.07;;;;;;;;;;5011718;28;20673;-60
2022/04/10 09:58:30;;;;;;;139.95;92.70;;;;;;;;;;5011858;28;20428;-62
2022/04/10 10:00:56;;;;;;;149.05;97.40;;;;;;;;;;5011565;28;20173;-63
2022/04/10 10:03:23;;;;;;;155.93;98.45;;;;;;;;;;5011835;28;20185;-63
2022/04/10 10:05:53;;;;;;;151.02;107.63;;;;;;;;;;5011643;28;20209;-63
2022/04/10 10:08:20;;;;;;;158.38;117.13;;;;;;;;;;5011831;28;20231;-63
2022/04/10 10:10:46;;;;;;;159.15;120.20;;;;;;;;;;5011563;28;20182;-63
2022/04/10 10:13:13;;;;;;;155.68;119.72;;;;;;;;;;5011750;28;20173;-63
2022/04/10 10:15:40;;;;;;;163.77;120.25;;;;;;;;;;5011629;28;20169;-63
2022/04/10 10:18:07;;;;;;;146.25;115.05;;;;;;;;;;5011791;28;20174;-62
2022/04/10 10:20:34;;;;;;;158.13;111.68;;;;;;;;;;5011468;28;20180;-62
2022/04/10 10:23:15;;;;;;;165.45;123.50;;;;;;;;;;5011005;28;20232;-62
2022/04/10 10:25:48;;;;;;;153.52;121.85;;;;;;;;;;4991773;28;20217;-63
2022/04/10 10:28:29;;;;;;;185.90;141.65;;;;;;;;;;4991614;28;20180;-60
2022/04/10 10:31:14;;;;;;;202.77;162.55;;;;;;;;;;4991781;28;20183;-60
2022/04/10 10:33:47;;;;;;;203.40;166.73;;;;;;;;;;4991934;28;20177;-60
2022/04/10 10:36:21;;;;;;;175.73;148.68;;;;;;;;;;4991894;28;20800;-60
2022/04/10 10:38:52;;;;;;;178.13;138.15;;;;;;;;;;4991917;28;20178;-63
2022/04/10 10:41:18;;;;;;;173.60;129.00;;;;;;;;;;4991669;28;20539;-62
2022/04/10 10:43:44;;;;;;;164.70;118.73;;;;;;;;;;4991731;28;20177;-62
2022/04/10 10:46:22;;;;;;;170.18;114.70;;;;;;;;;;4991790;28;20477;-62
2022/04/10 10:48:50;;;;;;;164.40;108.32;;;;;;;;;;4991713;28;20249;-62
2022/04/10 10:51:18;;;;;;;170.55;99.88;;;;;;;;;;4991500;28;20650;-62
2022/04/10 10:53:45;;;;;;;165.45;96.53;;;;;;;;;;4991801;28;20234;-62
2022/04/10 10:56:14;;;;;;;171.80;95.97;;;;;;;;;;4991545;28;20198;-62
2022/04/10 10:58:41;;;;;;;163.50;87.88;;;;;;;;;;4992647;28;20669;-62
2022/04/10 11:01:07;;;;;;;169.55;88.15;;;;;;;;;;4995131;28;20179;-62
2022/04/10 11:03:53;;;;;;;171.38;86.18;;;;;;;;;;4995227;28;20182;-62
2022/04/10 11:06:21;;;;;;;154.90;81.13;;;;;;;;;;4995296;28;20285;-62
2022/04/10 11:08:47;;;;;;;159.40;81.40;;;;;;;;;;4995257;28;20586;-62
2022/04/10 11:11:18;;;;;;;153.57;82.97;;;;;;;;;;5002321;28;20178;-62
2022/04/10 11:13:46;;;;;;;154.75;82.75;;;;;;;;;;4995247;28;20472;-62
2022/04/10 11:16:13;;;;;;;164.98;94.82;;;;;;;;;;4995142;28;20582;-63
2022/04/10 11:18:42;;;;;;;185.07;120.82;;;;;;;;;;4995188;28;20189;-61
2022/04/10 11:21:10;;;;;;;202.25;150.77;;;;;;;;;;4994644;28;20176;-61
2022/04/10 11:23:40;;;;;;;191.45;168.32;;;;;;;;;;4994274;28;20184;-61
2022/04/10 11:26:09;;;;;;;225.07;170.98;;;;;;;;;;4994798;28;20285;-63
2022/04/10 11:28:57;;;;;;;210.52;156.05;;;;;;;;;;4994854;28;20198;-63
2022/04/10 11:31:30;;;;;;;199.00;138.68;;;;;;;;;;4994612;28;20207;-63
2022/04/10 11:34:06;;;;;;;198.95;130.48;;;;;;;;;;4994053;28;20268;-62
2022/04/10 11:36:44;;;;;;;199.38;120.45;;;;;;;;;;4994712;28;20209;-63
2022/04/10 11:39:10;;;;;;;189.52;117.63;;;;;;;;;;4994644;28;20236;-63
2022/04/10 11:41:37;;;;;;;192.43;115.32;;;;;;;;;;4994611;28;20638;-63
2022/04/10 11:44:06;;;;;;;188.75;115.78;;;;;;;;;;4994391;28;20181;-63
2022/04/10 11:46:32;;;;;;;189.85;115.50;;;;;;;;;;4993883;28;20230;-63
2022/04/10 11:48:59;;;;;;;192.27;116.03;;;;;;;;;;4994452;28;20182;-63
2022/04/10 11:51:24;;;;;;;183.63;113.43;;;;;;;;;;4994070;28;20206;-63
2022/04/10 11:54:00;;;;;;;184.90;114.07;;;;;;;;;;4994353;28;20175;-63
2022/04/10 11:56:26;;;;;;;180.40;111.88;;;;;;;;;;4993623;28;20441;-63
2022/04/10 11:58:52;;;;;;;191.75;119.30;;;;;;;;;;4994904;28;20618;-63
2022/04/10 12:01:21;;;;;;;190.00;125.75;;;;;;;;;;4994093;28;20217;-63
2022/04/10 12:03:50;;;;;;;196.13;134.98;;;;;;;;;;4994271;28;20273;-63
2022/04/10 12:06:20;;;;;;;196.25;145.43;;;;;;;;;;4993976;28;20288;-63
2022/04/10 12:08:47;;;;;;;194.50;148.55;;;;;;;;;;4993409;28;20177;-61
2022/04/10 12:11:13;;;;;;;194.90;148.43;;;;;;;;;;5010159;28;20218;-61
2022/04/10 12:13:39;;;;;;;205.38;144.60;;;;;;;;;;5013008;28;20255;-62
2022/04/10 12:16:18;;;;;;;188.07;131.63;;;;;;;;;;5013258;28;20209;-61
2022/04/10 12:18:51;;;;;;;182.02;127.90;;;;;;;;;;5012313;28;20462;-61
2022/04/10 12:21:17;;;;;;;188.52;125.47;;;;;;;;;;5011193;28;20240;-61
2022/04/10 12:23:43;;;;;;;200.20;123.43;;;;;;;;;;5012380;28;20182;-61
2022/04/10 12:26:09;;;;;;;200.15;125.63;;;;;;;;;;5013162;28;20209;-61
2022/04/10 12:28:38;;;;;;;202.88;129.43;;;;;;;;;;5013185;28;20569;-61
2022/04/10 12:31:04;;;;;;;201.63;130.57;;;;;;;;;;5012891;28;20211;-62
2022/04/10 12:33:30;;;;;;;209.10;137.02;;;;;;;;;;5013063;28;20257;-62
2022/04/10 12:35:57;;;;;;;221.70;142.60;;;;;;;;;;5006737;28;20764;-62
2022/04/10 12:38:27;;;;;;;222.18;149.35;;;;;;;;;;5011202;28;20189;-61
2022/04/10 12:41:02;;;;;;;218.20;151.05;;;;;;;;;;5010929;28;20175;-61
2022/04/10 12:43:31;;;;;;;213.55;156.98;;;;;;;;;;5010628;28;20169;-60
2022/04/10 12:46:08;;;;;;;226.57;159.10;;;;;;;;;;5011073;28;20221;-62
2022/04/10 12:48:34;;;;;;;222.48;154.55;;;;;;;;;;5012787;28;20238;-61
2022/04/10 12:51:04;;;;;;;227.52;155.02;;;;;;;;;;5011976;28;20540;-62
2022/04/10 12:53:30;;;;;;;223.82;155.80;;;;;;;;;;5012022;28;20189;-61
2022/04/10 12:55:56;;;;;;;229.30;150.83;;;;;;;;;;5013904;28;20708;-62
2022/04/10 12:58:22;;;;;;;201.37;149.80;;;;;;;;;;5012723;28;20920;-62
2022/04/10 13:00:48;;;;;;;222.50;145.33;;;;;;;;;;5010214;28;20415;-62
2022/04/10 13:03:20;;;;;;;229.67;149.03;;;;;;;;;;5012047;28;20418;-62
2022/04/10 13:05:58;;;;;;;223.77;147.77;;;;;;;;;;5012742;28;20542;-62
2022/04/10 13:08:28;;;;;;;228.73;144.00;;;;;;;;;;5011522;28;20672;-62
2022/04/10 13:10:56;;;;;;;231.23;143.38;;;;;;;;;;5012224;28;20173;-62
2022/04/10 13:13:22;;;;;;;203.15;136.20;;;;;;;;;;5012468;28;20810;-62
2022/04/10 13:15:48;;;;;;;205.27;138.00;;;;;;;;;;5003199;28;20267;-62
2022/04/10 13:18:15;;;;;;;152.65;137.90;;;;;;;;;;5002163;28;20423;-62
2022/04/10 13:20:41;;;;;;;174.88;135.93;;;;;;;;;;5004421;28;20548;-62
2022/04/10 13:23:07;;;;;;;179.80;138.45;;;;;;;;;;5005189;28;20178;-62
2022/04/10 13:25:35;;;;;;;190.48;138.93;;;;;;;;;;5002697;28;20199;-63
2022/04/10 13:28:01;;;;;;;184.93;138.85;;;;;;;;;;5004181;28;20759;-62
2022/04/10 13:30:28;;;;;;;185.65;139.73;;;;;;;;;;5001018;28;20179;-62
2022/04/10 13:32:54;;;;;;;188.57;137.65;;;;;;;;;;5000182;28;20183;-61
2022/04/10 13:35:20;;;;;;;182.27;133.60;;;;;;;;;;5001882;28;20181;-61
2022/04/10 13:37:46;;;;;;;177.98;133.13;;;;;;;;;;5003656;28;20830;-62
2022/04/10 13:40:15;;;;;;;180.30;137.63;;;;;;;;;;5002352;28;20177;-61
2022/04/10 13:42:43;;;;;;;184.85;129.40;;;;;;;;;;5000315;28;20345;-62
2022/04/10 13:45:09;;;;;;;180.65;125.55;;;;;;;;;;4997487;28;20201;-63
2022/04/10 13:47:35;;;;;;;181.73;133.20;;;;;;;;;;5004858;28;20715;-62
2022/04/10 13:50:01;;;;;;;170.52;133.70;;;;;;;;;;5002536;28;20186;-62
2022/04/10 13:52:27;;;;;;;180.55;127.07;;;;;;;;;;5031474;28;20201;-62
2022/04/10 13:54:53;;;;;;;181.57;130.50;;;;;;;;;;5001544;28;20240;-62
2022/04/10 13:57:19;;;;;;;179.57;126.18;;;;;;;;;;5000456;28;20673;-62
2022/04/10 13:59:46;;;;;;;172.32;125.10;;;;;;;;;;4993390;28;20268;-61
2022/04/10 14:02:13;;;;;;;180.02;122.22;;;;;;;;;;4991784;28;20166;-62
2022/04/10 14:04:39;;;;;;;167.35;113.18;;;;;;;;;;4991695;28;20182;-62
2022/04/10 14:07:05;;;;;;;156.50;111.27;;;;;;;;;;5001440;28;20201;-62